sensor_id;sensor_type;location;lat;lon;timestamp;temperature;humidity
18753;DHT22;9505;50.882;5.350;2023-02-24T00:01:49;6.50;99.90
18753;DHT22;9505;50.882;5.350;2023-02-24T00:04:18;6.50;99.90
18753;DHT22;9505;50.882;5.350;2023-02-24T00:06:43;6.50;99.90
18753;DHT22;9505;50.882;5.350;2023-02-24T00:09:12;6.40;99.90
18753;DHT22;9505;50.882;5.350;2023-02-24T00:11:41;6.40;99.90
18753;DHT22;9505;50.882;5.350;2023-02-24T00:14:10;6.50;99.90
18753;DHT22;9505;50.882;5.350;2023-02-24T00:16:37;6.50;99.90
18753;DHT22;9505;50.882;5.350;2023-02-24T00:19:04;6.50;99.90
18753;DHT22;9505;50.882;5.350;2023-02-24T00:21:32;6.40;99.90
18753;DHT22;9505;50.882;5.350;2023-02-24T00:23:58;6.50;99.90
18753;DHT22;9505;50.882;5.350;2023-02-24T00:26:24;6.50;99.90
18753;DHT22;9505;50.882;5.350;2023-02-24T00:28:50;6.60;99.90
18753;DHT22;9505;50.882;5.350;2023-02-24T00:31:17;6.60;99.90
18753;DHT22;9505;50.882;5.350;2023-02-24T00:33:45;6.60;99.90
18753;DHT22;9505;50.882;5.350;2023-02-24T00:38:38;6.60;99.90
18753;DHT22;9505;50.882;5.350;2023-02-24T00:41:12;6.60;99.90
18753;DHT22;9505;50.882;5.350;2023-02-24T00:43:40;6.60;99.90
18753;DHT22;9505;50.882;5.350;2023-02-24T00:46:15;6.60;99.90
18753;DHT22;9505;50.882;5.350;2023-02-24T00:48:43;6.60;99.90
18753;DHT22;9505;50.882;5.350;2023-02-24T00:51:17;6.60;99.90
18753;DHT22;9505;50.882;5.350;2023-02-24T00:53:48;6.50;99.90
18753;DHT22;9505;50.882;5.350;2023-02-24T00:56:15;6.60;99.90
18753;DHT22;9505;50.882;5.350;2023-02-24T00:58:42;6.70;99.90
18753;DHT22;9505;50.882;5.350;2023-02-24T01:01:17;6.60;99.90
18753;DHT22;9505;50.882;5.350;2023-02-24T01:03:44;6.60;99.90
18753;DHT22;9505;50.882;5.350;2023-02-24T01:06:11;6.60;99.90
18753;DHT22;9505;50.882;5.350;2023-02-24T01:08:39;6.50;99.90
18753;DHT22;9505;50.882;5.350;2023-02-24T01:11:15;6.50;99.90
18753;DHT22;9505;50.882;5.350;2023-02-24T01:14:06;6.60;99.90
18753;DHT22;9505;50.882;5.350;2023-02-24T01:16:33;6.50;99.90
18753;DHT22;9505;50.882;5.350;2023-02-24T01:18:59;6.50;99.90
18753;DHT22;9505;50.882;5.350;2023-02-24T01:21:25;6.60;99.90
18753;DHT22;9505;50.882;5.350;2023-02-24T01:23:50;6.60;99.90
18753;DHT22;9505;50.882;5.350;2023-02-24T01:26:17;6.50;99.90
18753;DHT22;9505;50.882;5.350;2023-02-24T01:28:44;6.50;99.90
18753;DHT22;9505;50.882;5.350;2023-02-24T01:31:15;6.50;99.90
18753;DHT22;9505;50.882;5.350;2023-02-24T01:33:43;6.50;99.90
18753;DHT22;9505;50.882;5.350;2023-02-24T01:36:18;6.40;99.90
18753;DHT22;9505;50.882;5.350;2023-02-24T01:38:44;6.40;99.90
18753;DHT22;9505;50.882;5.350;2023-02-24T01:41:11;6.40;99.90
18753;DHT22;9505;50.882;5.350;2023-02-24T01:44:03;6.40;99.90
18753;DHT22;9505;50.882;5.350;2023-02-24T01:46:35;6.40;99.90
18753;DHT22;9505;50.882;5.350;2023-02-24T01:49:18;6.30;99.90
18753;DHT22;9505;50.882;5.350;2023-02-24T01:51:57;6.30;99.90
18753;DHT22;9505;50.882;5.350;2023-02-24T01:54:29;6.20;99.90
18753;DHT22;9505;50.882;5.350;2023-02-24T01:56:57;6.10;99.90
18753;DHT22;9505;50.882;5.350;2023-02-24T01:59:24;6.10;99.90
18753;DHT22;9505;50.882;5.350;2023-02-24T02:01:56;6.10;99.90
18753;DHT22;9505;50.882;5.350;2023-02-24T02:04:25;6.10;99.90
18753;DHT22;9505;50.882;5.350;2023-02-24T02:06:53;6.00;99.90
18753;DHT22;9505;50.882;5.350;2023-02-24T02:09:19;6.00;99.90
18753;DHT22;9505;50.882;5.350;2023-02-24T02:11:45;6.10;99.90
18753;DHT22;9505;50.882;5.350;2023-02-24T02:14:15;6.10;99.90
18753;DHT22;9505;50.882;5.350;2023-02-24T02:30:46;6.00;99.90
18753;DHT22;9505;50.882;5.350;2023-02-24T02:36:35;5.90;99.90
18753;DHT22;9505;50.882;5.350;2023-02-24T02:39:41;5.90;99.90
18753;DHT22;9505;50.882;5.350;2023-02-24T02:42:06;5.80;99.90
18753;DHT22;9505;50.882;5.350;2023-02-24T02:47:52;5.90;99.90
18753;DHT22;9505;50.882;5.350;2023-02-24T02:52:58;6.00;99.90
18753;DHT22;9505;50.882;5.350;2023-02-24T02:55:44;6.00;99.90
18753;DHT22;9505;50.882;5.350;2023-02-24T02:58:17;5.90;99.90
18753;DHT22;9505;50.882;5.350;2023-02-24T03:00:51;5.90;99.90
18753;DHT22;9505;50.882;5.350;2023-02-24T03:03:29;5.90;99.90
18753;DHT22;9505;50.882;5.350;2023-02-24T03:06:06;5.90;99.90
18753;DHT22;9505;50.882;5.350;2023-02-24T03:08:37;5.90;99.90
18753;DHT22;9505;50.882;5.350;2023-02-24T03:11:06;5.90;99.90
18753;DHT22;9505;50.882;5.350;2023-02-24T03:13:39;5.80;99.90
18753;DHT22;9505;50.882;5.350;2023-02-24T03:16:07;5.80;99.90
18753;DHT22;9505;50.882;5.350;2023-02-24T03:18:39;5.80;99.90
18753;DHT22;9505;50.882;5.350;2023-02-24T03:21:14;5.80;99.90
18753;DHT22;9505;50.882;5.350;2023-02-24T03:23:48;5.80;99.90
18753;DHT22;9505;50.882;5.350;2023-02-24T03:26:20;5.80;99.90
18753;DHT22;9505;50.882;5.350;2023-02-24T03:29:13;5.80;99.90
18753;DHT22;9505;50.882;5.350;2023-02-24T03:31:49;5.70;99.90
18753;DHT22;9505;50.882;5.350;2023-02-24T03:34:29;5.70;99.90
18753;DHT22;9505;50.882;5.350;2023-02-24T03:36:57;5.70;99.90
18753;DHT22;9505;50.882;5.350;2023-02-24T03:39:23;5.70;99.90
18753;DHT22;9505;50.882;5.350;2023-02-24T03:44:15;5.70;99.90
18753;DHT22;9505;50.882;5.350;2023-02-24T03:46:40;5.70;99.90
18753;DHT22;9505;50.882;5.350;2023-02-24T03:49:12;5.70;99.90
18753;DHT22;9505;50.882;5.350;2023-02-24T03:51:39;5.60;99.90
18753;DHT22;9505;50.882;5.350;2023-02-24T04:02:59;5.50;99.90
18753;DHT22;9505;50.882;5.350;2023-02-24T04:05:29;5.50;99.90
18753;DHT22;9505;50.882;5.350;2023-02-24T04:08:05;5.50;99.90
18753;DHT22;9505;50.882;5.350;2023-02-24T04:10:53;5.50;99.90
18753;DHT22;9505;50.882;5.350;2023-02-24T04:13:38;5.50;99.90
18753;DHT22;9505;50.882;5.350;2023-02-24T04:19:03;5.40;99.90
18753;DHT22;9505;50.882;5.350;2023-02-24T04:21:30;5.30;99.90
18753;DHT22;9505;50.882;5.350;2023-02-24T04:23:59;5.30;99.90
18753;DHT22;9505;50.882;5.350;2023-02-24T04:26:26;5.30;99.90
18753;DHT22;9505;50.882;5.350;2023-02-24T04:28:54;5.30;99.90
18753;DHT22;9505;50.882;5.350;2023-02-24T04:31:21;5.30;99.90
18753;DHT22;9505;50.882;5.350;2023-02-24T04:33:49;5.30;99.90
18753;DHT22;9505;50.882;5.350;2023-02-24T04:36:16;5.20;99.90
18753;DHT22;9505;50.882;5.350;2023-02-24T04:38:42;5.10;99.90
18753;DHT22;9505;50.882;5.350;2023-02-24T04:41:10;5.10;99.90
18753;DHT22;9505;50.882;5.350;2023-02-24T04:43:36;5.00;99.90
18753;DHT22;9505;50.882;5.350;2023-02-24T04:46:03;4.90;99.90
18753;DHT22;9505;50.882;5.350;2023-02-24T04:48:33;4.70;99.90
18753;DHT22;9505;50.882;5.350;2023-02-24T04:51:00;4.60;99.90
18753;DHT22;9505;50.882;5.350;2023-02-24T04:53:28;4.50;99.90
18753;DHT22;9505;50.882;5.350;2023-02-24T04:55:53;4.40;99.90
18753;DHT22;9505;50.882;5.350;2023-02-24T04:58:22;4.30;99.90
18753;DHT22;9505;50.882;5.350;2023-02-24T05:00:52;4.20;99.90
18753;DHT22;9505;50.882;5.350;2023-02-24T05:03:19;4.10;99.90
18753;DHT22;9505;50.882;5.350;2023-02-24T05:05:56;4.00;99.90
18753;DHT22;9505;50.882;5.350;2023-02-24T05:08:25;4.00;99.90
18753;DHT22;9505;50.882;5.350;2023-02-24T05:10:52;3.90;99.90
18753;DHT22;9505;50.882;5.350;2023-02-24T05:13:22;3.90;99.90
18753;DHT22;9505;50.882;5.350;2023-02-24T05:15:52;3.80;99.90
18753;DHT22;9505;50.882;5.350;2023-02-24T05:18:18;3.70;99.90
18753;DHT22;9505;50.882;5.350;2023-02-24T05:20:51;3.60;99.90
18753;DHT22;9505;50.882;5.350;2023-02-24T05:23:38;3.50;99.90
18753;DHT22;9505;50.882;5.350;2023-02-24T05:26:05;3.50;99.90
18753;DHT22;9505;50.882;5.350;2023-02-24T05:28:35;3.40;99.90
18753;DHT22;9505;50.882;5.350;2023-02-24T05:31:11;3.30;99.90
18753;DHT22;9505;50.882;5.350;2023-02-24T05:33:40;3.30;99.90
18753;DHT22;9505;50.882;5.350;2023-02-24T05:36:09;3.20;99.90
18753;DHT22;9505;50.882;5.350;2023-02-24T05:38:37;3.20;99.90
18753;DHT22;9505;50.882;5.350;2023-02-24T05:41:28;3.10;99.90
18753;DHT22;9505;50.882;5.350;2023-02-24T05:44:01;3.00;99.90
18753;DHT22;9505;50.882;5.350;2023-02-24T05:46:31;3.00;99.90
18753;DHT22;9505;50.882;5.350;2023-02-24T05:49:04;2.90;99.90
18753;DHT22;9505;50.882;5.350;2023-02-24T05:51:39;2.90;99.90
18753;DHT22;9505;50.882;5.350;2023-02-24T05:54:10;2.90;99.90
18753;DHT22;9505;50.882;5.350;2023-02-24T05:56:39;2.80;99.90
18753;DHT22;9505;50.882;5.350;2023-02-24T05:59:07;2.70;99.90
18753;DHT22;9505;50.882;5.350;2023-02-24T06:01:35;2.60;99.90
18753;DHT22;9505;50.882;5.350;2023-02-24T06:04:05;2.50;99.90
18753;DHT22;9505;50.882;5.350;2023-02-24T06:06:34;2.40;99.90
18753;DHT22;9505;50.882;5.350;2023-02-24T06:09:10;2.30;99.90
18753;DHT22;9505;50.882;5.350;2023-02-24T06:11:40;2.20;99.90
18753;DHT22;9505;50.882;5.350;2023-02-24T06:14:08;2.20;99.90
18753;DHT22;9505;50.882;5.350;2023-02-24T06:16:36;2.10;99.90
18753;DHT22;9505;50.882;5.350;2023-02-24T06:19:03;2.10;99.90
18753;DHT22;9505;50.882;5.350;2023-02-24T06:21:29;2.10;99.90
18753;DHT22;9505;50.882;5.350;2023-02-24T06:23:56;2.10;99.90
18753;DHT22;9505;50.882;5.350;2023-02-24T06:26:23;2.10;99.90
18753;DHT22;9505;50.882;5.350;2023-02-24T06:28:52;2.20;99.90
18753;DHT22;9505;50.882;5.350;2023-02-24T06:31:18;2.20;99.90
18753;DHT22;9505;50.882;5.350;2023-02-24T06:33:46;2.20;99.90
18753;DHT22;9505;50.882;5.350;2023-02-24T06:36:12;2.20;99.90
18753;DHT22;9505;50.882;5.350;2023-02-24T06:38:39;2.20;99.90
18753;DHT22;9505;50.882;5.350;2023-02-24T06:41:05;2.20;99.90
18753;DHT22;9505;50.882;5.350;2023-02-24T06:43:38;2.20;99.90
18753;DHT22;9505;50.882;5.350;2023-02-24T06:46:05;2.20;99.90
18753;DHT22;9505;50.882;5.350;2023-02-24T06:48:32;2.30;99.90
18753;DHT22;9505;50.882;5.350;2023-02-24T06:51:12;2.40;99.90
18753;DHT22;9505;50.882;5.350;2023-02-24T06:53:41;2.50;99.90
18753;DHT22;9505;50.882;5.350;2023-02-24T06:56:12;2.60;99.90
18753;DHT22;9505;50.882;5.350;2023-02-24T06:58:46;2.70;99.90
18753;DHT22;9505;50.882;5.350;2023-02-24T07:01:13;2.80;99.90
18753;DHT22;9505;50.882;5.350;2023-02-24T07:03:39;2.80;99.90
18753;DHT22;9505;50.882;5.350;2023-02-24T07:06:11;2.80;99.90
18753;DHT22;9505;50.882;5.350;2023-02-24T07:08:49;2.80;99.90
18753;DHT22;9505;50.882;5.350;2023-02-24T07:11:15;2.80;99.90
18753;DHT22;9505;50.882;5.350;2023-02-24T07:13:43;2.80;99.90
18753;DHT22;9505;50.882;5.350;2023-02-24T07:16:09;2.80;99.90
18753;DHT22;9505;50.882;5.350;2023-02-24T07:18:37;2.80;99.90
18753;DHT22;9505;50.882;5.350;2023-02-24T07:21:06;2.90;99.90
18753;DHT22;9505;50.882;5.350;2023-02-24T07:23:44;3.00;99.90
18753;DHT22;9505;50.882;5.350;2023-02-24T07:26:15;3.00;99.90
18753;DHT22;9505;50.882;5.350;2023-02-24T07:28:42;3.10;99.90
18753;DHT22;9505;50.882;5.350;2023-02-24T07:31:11;3.10;99.90
18753;DHT22;9505;50.882;5.350;2023-02-24T07:33:38;3.20;99.90
18753;DHT22;9505;50.882;5.350;2023-02-24T07:36:07;3.20;99.90
18753;DHT22;9505;50.882;5.350;2023-02-24T07:38:41;3.30;99.90
18753;DHT22;9505;50.882;5.350;2023-02-24T07:41:09;3.40;99.90
18753;DHT22;9505;50.882;5.350;2023-02-24T07:43:36;3.50;99.90
18753;DHT22;9505;50.882;5.350;2023-02-24T07:46:09;3.60;99.90
18753;DHT22;9505;50.882;5.350;2023-02-24T07:48:36;3.70;99.90
18753;DHT22;9505;50.882;5.350;2023-02-24T07:51:16;3.80;99.90
18753;DHT22;9505;50.882;5.350;2023-02-24T07:53:42;4.00;99.90
18753;DHT22;9505;50.882;5.350;2023-02-24T07:56:13;4.10;99.90
18753;DHT22;9505;50.882;5.350;2023-02-24T07:58:39;4.10;99.90
18753;DHT22;9505;50.882;5.350;2023-02-24T08:01:07;4.20;99.90
18753;DHT22;9505;50.882;5.350;2023-02-24T08:03:36;4.20;99.90
18753;DHT22;9505;50.882;5.350;2023-02-24T08:06:09;4.20;99.90
18753;DHT22;9505;50.882;5.350;2023-02-24T08:08:41;4.30;99.90
18753;DHT22;9505;50.882;5.350;2023-02-24T08:11:27;4.30;99.90
18753;DHT22;9505;50.882;5.350;2023-02-24T08:14:03;4.40;99.90
18753;DHT22;9505;50.882;5.350;2023-02-24T08:16:32;4.50;99.90
18753;DHT22;9505;50.882;5.350;2023-02-24T08:19:05;4.70;99.90
18753;DHT22;9505;50.882;5.350;2023-02-24T08:21:31;4.70;99.90
18753;DHT22;9505;50.882;5.350;2023-02-24T08:24:04;4.80;99.90
18753;DHT22;9505;50.882;5.350;2023-02-24T08:26:29;4.80;99.90
18753;DHT22;9505;50.882;5.350;2023-02-24T08:28:56;4.90;99.90
18753;DHT22;9505;50.882;5.350;2023-02-24T08:31:22;4.90;99.90
18753;DHT22;9505;50.882;5.350;2023-02-24T08:33:48;4.90;99.90
18753;DHT22;9505;50.882;5.350;2023-02-24T08:36:17;4.90;99.90
18753;DHT22;9505;50.882;5.350;2023-02-24T08:38:46;5.00;99.90
18753;DHT22;9505;50.882;5.350;2023-02-24T08:41:18;5.10;99.90
18753;DHT22;9505;50.882;5.350;2023-02-24T08:43:46;5.10;99.90
18753;DHT22;9505;50.882;5.350;2023-02-24T08:48:57;5.30;99.90
18753;DHT22;9505;50.882;5.350;2023-02-24T08:51:30;5.50;99.90
18753;DHT22;9505;50.882;5.350;2023-02-24T08:54:04;5.60;99.90
18753;DHT22;9505;50.882;5.350;2023-02-24T08:56:36;5.70;99.90
18753;DHT22;9505;50.882;5.350;2023-02-24T08:59:09;5.80;99.90
18753;DHT22;9505;50.882;5.350;2023-02-24T09:01:54;6.00;99.90
18753;DHT22;9505;50.882;5.350;2023-02-24T09:04:41;6.10;99.90
18753;DHT22;9505;50.882;5.350;2023-02-24T09:07:15;6.10;99.90
18753;DHT22;9505;50.882;5.350;2023-02-24T09:09:42;6.00;99.90
18753;DHT22;9505;50.882;5.350;2023-02-24T09:12:08;6.00;99.90
18753;DHT22;9505;50.882;5.350;2023-02-24T09:14:47;6.10;99.90
18753;DHT22;9505;50.882;5.350;2023-02-24T09:17:14;6.40;99.90
18753;DHT22;9505;50.882;5.350;2023-02-24T09:19:49;6.30;99.90
18753;DHT22;9505;50.882;5.350;2023-02-24T09:22:26;6.00;99.90
18753;DHT22;9505;50.882;5.350;2023-02-24T09:25:22;5.80;99.90
18753;DHT22;9505;50.882;5.350;2023-02-24T09:30:34;6.10;99.90
18753;DHT22;9505;50.882;5.350;2023-02-24T09:33:07;6.00;99.90
18753;DHT22;9505;50.882;5.350;2023-02-24T09:35:51;6.30;99.90
18753;DHT22;9505;50.882;5.350;2023-02-24T09:38:21;6.30;99.90
18753;DHT22;9505;50.882;5.350;2023-02-24T09:41:21;6.40;99.90
18753;DHT22;9505;50.882;5.350;2023-02-24T09:44:13;6.80;99.90
18753;DHT22;9505;50.882;5.350;2023-02-24T09:46:54;7.30;99.90
18753;DHT22;9505;50.882;5.350;2023-02-24T09:49:29;7.10;99.90
18753;DHT22;9505;50.882;5.350;2023-02-24T09:52:09;7.10;99.90
18753;DHT22;9505;50.882;5.350;2023-02-24T09:54:41;7.10;99.90
18753;DHT22;9505;50.882;5.350;2023-02-24T09:57:21;7.00;99.90
18753;DHT22;9505;50.882;5.350;2023-02-24T10:02:45;6.90;99.90
18753;DHT22;9505;50.882;5.350;2023-02-24T10:05:26;7.20;99.90
18753;DHT22;9505;50.882;5.350;2023-02-24T10:07:54;7.00;99.90
18753;DHT22;9505;50.882;5.350;2023-02-24T10:10:30;7.00;99.90
18753;DHT22;9505;50.882;5.350;2023-02-24T10:15:46;7.00;99.90
18753;DHT22;9505;50.882;5.350;2023-02-24T10:21:26;7.00;99.90
18753;DHT22;9505;50.882;5.350;2023-02-24T10:24:33;7.00;99.90
18753;DHT22;9505;50.882;5.350;2023-02-24T10:27:27;7.00;99.90
18753;DHT22;9505;50.882;5.350;2023-02-24T10:32:54;6.50;99.90
18753;DHT22;9505;50.882;5.350;2023-02-24T10:35:28;6.60;99.90
18753;DHT22;9505;50.882;5.350;2023-02-24T10:38:01;6.50;99.90
18753;DHT22;9505;50.882;5.350;2023-02-24T10:40:31;6.60;99.90
18753;DHT22;9505;50.882;5.350;2023-02-24T10:43:15;6.60;99.90
18753;DHT22;9505;50.882;5.350;2023-02-24T10:45:44;6.30;99.90
18753;DHT22;9505;50.882;5.350;2023-02-24T10:48:19;6.30;99.90
18753;DHT22;9505;50.882;5.350;2023-02-24T10:50:51;6.40;99.90
18753;DHT22;9505;50.882;5.350;2023-02-24T10:53:21;6.30;99.90
18753;DHT22;9505;50.882;5.350;2023-02-24T10:55:54;6.20;99.90
18753;DHT22;9505;50.882;5.350;2023-02-24T10:58:40;6.20;99.90
18753;DHT22;9505;50.882;5.350;2023-02-24T11:01:18;6.10;99.90
18753;DHT22;9505;50.882;5.350;2023-02-24T11:04:04;6.00;99.90
18753;DHT22;9505;50.882;5.350;2023-02-24T11:06:49;6.00;99.90
18753;DHT22;9505;50.882;5.350;2023-02-24T11:09:25;6.10;99.90
18753;DHT22;9505;50.882;5.350;2023-02-24T11:12:15;6.10;99.90
18753;DHT22;9505;50.882;5.350;2023-02-24T11:15:16;6.20;99.90
18753;DHT22;9505;50.882;5.350;2023-02-24T11:18:01;6.30;99.90
18753;DHT22;9505;50.882;5.350;2023-02-24T11:20:42;6.30;99.90
18753;DHT22;9505;50.882;5.350;2023-02-24T11:23:26;6.40;99.90
18753;DHT22;9505;50.882;5.350;2023-02-24T11:26:01;6.40;99.90
18753;DHT22;9505;50.882;5.350;2023-02-24T11:31:23;6.60;99.90
18753;DHT22;9505;50.882;5.350;2023-02-24T11:39:57;6.80;99.90
18753;DHT22;9505;50.882;5.350;2023-02-24T11:43:04;6.90;99.90
18753;DHT22;9505;50.882;5.350;2023-02-24T11:55:50;7.20;99.90
18753;DHT22;9505;50.882;5.350;2023-02-24T11:58:36;7.30;99.90
18753;DHT22;9505;50.882;5.350;2023-02-24T12:01:19;7.50;99.90
18753;DHT22;9505;50.882;5.350;2023-02-24T12:04:09;7.50;99.90
18753;DHT22;9505;50.882;5.350;2023-02-24T12:06:55;7.10;99.90
18753;DHT22;9505;50.882;5.350;2023-02-24T12:09:26;7.20;99.90
18753;DHT22;9505;50.882;5.350;2023-02-24T12:12:02;7.10;99.90
18753;DHT22;9505;50.882;5.350;2023-02-24T12:17:26;6.80;99.90
18753;DHT22;9505;50.882;5.350;2023-02-24T12:20:08;6.60;99.90
18753;DHT22;9505;50.882;5.350;2023-02-24T12:22:49;6.70;99.90
18753;DHT22;9505;50.882;5.350;2023-02-24T12:25:18;6.70;99.90
18753;DHT22;9505;50.882;5.350;2023-02-24T12:30:34;6.80;99.90
18753;DHT22;9505;50.882;5.350;2023-02-24T12:33:41;7.00;99.90
18753;DHT22;9505;50.882;5.350;2023-02-24T12:38:53;7.00;99.90
18753;DHT22;9505;50.882;5.350;2023-02-24T12:44:14;7.10;99.90
18753;DHT22;9505;50.882;5.350;2023-02-24T12:46:45;7.10;99.90
18753;DHT22;9505;50.882;5.350;2023-02-24T12:59:54;7.70;99.90
18753;DHT22;9505;50.882;5.350;2023-02-24T13:05:29;7.70;99.90
18753;DHT22;9505;50.882;5.350;2023-02-24T13:13:51;7.50;99.90
18753;DHT22;9505;50.882;5.350;2023-02-24T13:16:33;7.40;99.90
18753;DHT22;9505;50.882;5.350;2023-02-24T13:19:26;7.30;99.90
18753;DHT22;9505;50.882;5.350;2023-02-24T13:24:39;7.40;99.90
18753;DHT22;9505;50.882;5.350;2023-02-24T13:27:41;7.40;99.90
18753;DHT22;9505;50.882;5.350;2023-02-24T13:32:45;7.40;99.90
18753;DHT22;9505;50.882;5.350;2023-02-24T13:37:41;7.30;99.90
18753;DHT22;9505;50.882;5.350;2023-02-24T13:45:33;7.40;99.90
18753;DHT22;9505;50.882;5.350;2023-02-24T13:50:54;7.40;99.90
18753;DHT22;9505;50.882;5.350;2023-02-24T14:02:03;7.00;99.90
18753;DHT22;9505;50.882;5.350;2023-02-24T14:04:34;6.80;99.90
18753;DHT22;9505;50.882;5.350;2023-02-24T14:07:09;6.60;99.90
18753;DHT22;9505;50.882;5.350;2023-02-24T14:09:43;6.60;99.90
18753;DHT22;9505;50.882;5.350;2023-02-24T14:12:15;6.70;99.90
18753;DHT22;9505;50.882;5.350;2023-02-24T14:14:43;6.70;99.90
18753;DHT22;9505;50.882;5.350;2023-02-24T14:17:23;6.80;99.90
18753;DHT22;9505;50.882;5.350;2023-02-24T14:20:38;6.70;99.90
18753;DHT22;9505;50.882;5.350;2023-02-24T14:22:49;6.70;99.90
18753;DHT22;9505;50.882;5.350;2023-02-24T14:25:18;6.80;99.90
18753;DHT22;9505;50.882;5.350;2023-02-24T14:27:51;6.70;99.90
18753;DHT22;9505;50.882;5.350;2023-02-24T14:30:34;6.60;99.90
18753;DHT22;9505;50.882;5.350;2023-02-24T14:33:02;6.60;99.90
18753;DHT22;9505;50.882;5.350;2023-02-24T14:35:32;6.70;99.90
18753;DHT22;9505;50.882;5.350;2023-02-24T14:37:59;6.90;99.90
18753;DHT22;9505;50.882;5.350;2023-02-24T14:40:25;7.00;99.90
18753;DHT22;9505;50.882;5.350;2023-02-24T14:42:52;6.90;99.90
18753;DHT22;9505;50.882;5.350;2023-02-24T14:45:21;6.70;99.90
18753;DHT22;9505;50.882;5.350;2023-02-24T14:47:50;6.50;99.90
18753;DHT22;9505;50.882;5.350;2023-02-24T14:50:18;6.60;99.90
18753;DHT22;9505;50.882;5.350;2023-02-24T14:52:49;6.60;99.90
18753;DHT22;9505;50.882;5.350;2023-02-24T14:55:31;6.50;99.90
18753;DHT22;9505;50.882;5.350;2023-02-24T14:58:12;6.50;99.90
18753;DHT22;9505;50.882;5.350;2023-02-24T15:01:00;6.60;99.90
18753;DHT22;9505;50.882;5.350;2023-02-24T15:03:45;6.60;99.90
18753;DHT22;9505;50.882;5.350;2023-02-24T15:06:21;6.60;99.90
18753;DHT22;9505;50.882;5.350;2023-02-24T15:09:02;6.70;99.90
18753;DHT22;9505;50.882;5.350;2023-02-24T15:11:30;6.60;99.90
18753;DHT22;9505;50.882;5.350;2023-02-24T15:14:00;6.70;99.90
18753;DHT22;9505;50.882;5.350;2023-02-24T15:16:36;6.40;99.90
18753;DHT22;9505;50.882;5.350;2023-02-24T15:19:03;6.30;99.90
18753;DHT22;9505;50.882;5.350;2023-02-24T15:21:32;6.30;99.90
18753;DHT22;9505;50.882;5.350;2023-02-24T15:24:00;6.30;99.90
18753;DHT22;9505;50.882;5.350;2023-02-24T15:26:32;6.20;99.90
18753;DHT22;9505;50.882;5.350;2023-02-24T15:29:20;6.20;99.90
18753;DHT22;9505;50.882;5.350;2023-02-24T15:31:47;6.20;99.90
18753;DHT22;9505;50.882;5.350;2023-02-24T15:34:24;6.30;99.90
18753;DHT22;9505;50.882;5.350;2023-02-24T15:36:54;6.20;99.90
18753;DHT22;9505;50.882;5.350;2023-02-24T15:39:22;6.30;99.90
18753;DHT22;9505;50.882;5.350;2023-02-24T15:41:51;6.30;99.90
18753;DHT22;9505;50.882;5.350;2023-02-24T15:44:28;6.40;99.90
18753;DHT22;9505;50.882;5.350;2023-02-24T15:46:56;6.30;99.90
18753;DHT22;9505;50.882;5.350;2023-02-24T15:49:22;6.20;99.90
18753;DHT22;9505;50.882;5.350;2023-02-24T15:51:49;6.20;99.90
18753;DHT22;9505;50.882;5.350;2023-02-24T15:54:23;6.30;99.90
18753;DHT22;9505;50.882;5.350;2023-02-24T15:56:58;6.30;99.90
18753;DHT22;9505;50.882;5.350;2023-02-24T15:59:25;6.30;99.90
18753;DHT22;9505;50.882;5.350;2023-02-24T16:01:50;6.30;99.90
18753;DHT22;9505;50.882;5.350;2023-02-24T16:04:16;6.30;99.90
18753;DHT22;9505;50.882;5.350;2023-02-24T16:06:44;6.40;99.90
18753;DHT22;9505;50.882;5.350;2023-02-24T16:09:28;6.30;99.90
18753;DHT22;9505;50.882;5.350;2023-02-24T16:11:56;6.20;99.90
18753;DHT22;9505;50.882;5.350;2023-02-24T16:14:23;6.30;99.90
18753;DHT22;9505;50.882;5.350;2023-02-24T16:16:49;6.30;99.90
18753;DHT22;9505;50.882;5.350;2023-02-24T16:19:15;6.30;99.90
18753;DHT22;9505;50.882;5.350;2023-02-24T16:21:40;6.30;99.90
18753;DHT22;9505;50.882;5.350;2023-02-24T16:24:06;6.30;99.90
18753;DHT22;9505;50.882;5.350;2023-02-24T16:26:35;6.20;99.90
18753;DHT22;9505;50.882;5.350;2023-02-24T16:29:03;6.20;99.90
18753;DHT22;9505;50.882;5.350;2023-02-24T16:31:29;6.30;99.90
18753;DHT22;9505;50.882;5.350;2023-02-24T16:33:55;6.40;99.90
18753;DHT22;9505;50.882;5.350;2023-02-24T16:36:23;6.30;99.90
18753;DHT22;9505;50.882;5.350;2023-02-24T16:38:49;6.30;99.90
18753;DHT22;9505;50.882;5.350;2023-02-24T16:41:16;6.20;99.90
18753;DHT22;9505;50.882;5.350;2023-02-24T16:43:42;6.20;99.90
18753;DHT22;9505;50.882;5.350;2023-02-24T16:46:13;6.20;99.90
18753;DHT22;9505;50.882;5.350;2023-02-24T16:48:40;6.20;99.90
18753;DHT22;9505;50.882;5.350;2023-02-24T16:51:10;6.20;99.90
18753;DHT22;9505;50.882;5.350;2023-02-24T16:53:35;6.20;99.90
18753;DHT22;9505;50.882;5.350;2023-02-24T16:56:01;6.20;99.90
18753;DHT22;9505;50.882;5.350;2023-02-24T16:58:29;6.20;99.90
18753;DHT22;9505;50.882;5.350;2023-02-24T17:00:57;6.20;99.90
18753;DHT22;9505;50.882;5.350;2023-02-24T17:03:40;6.20;99.90
18753;DHT22;9505;50.882;5.350;2023-02-24T17:06:07;6.30;99.90
18753;DHT22;9505;50.882;5.350;2023-02-24T17:08:33;6.30;99.90
18753;DHT22;9505;50.882;5.350;2023-02-24T17:10:58;6.30;99.90
18753;DHT22;9505;50.882;5.350;2023-02-24T17:13:24;6.30;99.90
18753;DHT22;9505;50.882;5.350;2023-02-24T17:15:51;6.30;99.90
18753;DHT22;9505;50.882;5.350;2023-02-24T17:18:20;6.30;99.90
18753;DHT22;9505;50.882;5.350;2023-02-24T17:20:46;6.40;99.90
18753;DHT22;9505;50.882;5.350;2023-02-24T17:23:12;6.30;99.90
18753;DHT22;9505;50.882;5.350;2023-02-24T17:25:37;6.20;99.90
18753;DHT22;9505;50.882;5.350;2023-02-24T17:28:03;6.20;99.90
18753;DHT22;9505;50.882;5.350;2023-02-24T17:30:31;6.10;99.90
18753;DHT22;9505;50.882;5.350;2023-02-24T17:33:00;6.10;99.90
18753;DHT22;9505;50.882;5.350;2023-02-24T17:35:26;6.10;99.90
18753;DHT22;9505;50.882;5.350;2023-02-24T17:37:52;6.10;99.90
18753;DHT22;9505;50.882;5.350;2023-02-24T17:40:19;6.00;99.90
18753;DHT22;9505;50.882;5.350;2023-02-24T17:42:44;6.00;99.90
18753;DHT22;9505;50.882;5.350;2023-02-24T17:45:12;6.00;99.90
18753;DHT22;9505;50.882;5.350;2023-02-24T17:47:38;6.10;99.90
18753;DHT22;9505;50.882;5.350;2023-02-24T17:50:05;6.10;99.90
18753;DHT22;9505;50.882;5.350;2023-02-24T17:52:31;6.10;99.90
18753;DHT22;9505;50.882;5.350;2023-02-24T17:54:57;6.10;99.90
18753;DHT22;9505;50.882;5.350;2023-02-24T17:57:23;6.10;99.90
18753;DHT22;9505;50.882;5.350;2023-02-24T17:59:51;6.10;99.90
18753;DHT22;9505;50.882;5.350;2023-02-24T18:02:18;6.10;99.90
18753;DHT22;9505;50.882;5.350;2023-02-24T18:04:44;6.00;99.90
18753;DHT22;9505;50.882;5.350;2023-02-24T18:07:11;6.00;99.90
18753;DHT22;9505;50.882;5.350;2023-02-24T18:09:37;6.00;99.90
18753;DHT22;9505;50.882;5.350;2023-02-24T18:12:03;6.00;99.90
18753;DHT22;9505;50.882;5.350;2023-02-24T18:14:28;6.00;99.90
18753;DHT22;9505;50.882;5.350;2023-02-24T18:16:54;5.90;99.90
18753;DHT22;9505;50.882;5.350;2023-02-24T18:19:20;6.00;99.90
18753;DHT22;9505;50.882;5.350;2023-02-24T18:21:45;6.00;99.90
18753;DHT22;9505;50.882;5.350;2023-02-24T18:24:11;5.90;99.90
18753;DHT22;9505;50.882;5.350;2023-02-24T18:26:37;5.90;99.90
18753;DHT22;9505;50.882;5.350;2023-02-24T18:29:04;5.90;99.90
18753;DHT22;9505;50.882;5.350;2023-02-24T18:31:30;5.80;99.90
18753;DHT22;9505;50.882;5.350;2023-02-24T18:33:58;5.80;99.90
18753;DHT22;9505;50.882;5.350;2023-02-24T18:36:24;5.80;99.90
18753;DHT22;9505;50.882;5.350;2023-02-24T18:38:50;5.70;99.90
18753;DHT22;9505;50.882;5.350;2023-02-24T18:41:20;5.70;99.90
18753;DHT22;9505;50.882;5.350;2023-02-24T18:43:47;5.60;99.90